page 4659 of 1004711 registered users

eBook PostsUsers

  1. 0wedge2quill registered @ 2012-11-28 14:52:29, last login @ 2012-11-28 14:52:29
  2. 0ArribreSnoria registered @ 2012-11-28 14:53:28, last login @ 2012-11-28 14:53:29
  3. 0dancer1layer registered @ 2012-11-28 14:53:44, last login @ 2012-11-28 14:53:44
  4. 0paint80soccer registered @ 2012-11-28 14:54:39, last login @ 2012-11-28 14:54:39
  5. 0shelf0bongo registered @ 2012-11-28 14:56:20, last login @ 2012-11-28 14:56:20
  6. 0idea4metal registered @ 2012-11-28 14:58:07, last login @ 2012-11-28 14:58:07
  7. 0tipmimosa78 registered @ 2012-11-28 14:58:32, last login @ 2012-11-28 14:58:32
  8. 0syrupwaiter1 registered @ 2012-11-28 14:59:22, last login @ 2012-11-28 14:59:22
  9. 0dinner83rate registered @ 2012-11-28 14:59:33, last login @ 2012-11-28 14:59:33
  10. 0beachbeet83 registered @ 2012-11-28 14:59:45, last login @ 2012-11-28 14:59:45
  11. 0dress8text registered @ 2012-11-28 14:59:50, last login @ 2012-11-28 14:59:50
  12. 0kitten2drum registered @ 2012-11-28 15:00:43, last login @ 2012-11-28 15:00:43
  13. 0cousin6animal registered @ 2012-11-28 15:00:59, last login @ 2012-11-28 15:00:59
  14. 0collar7meter registered @ 2012-11-28 15:01:37, last login @ 2012-11-28 15:59:34
  15. 0beardsarah38 registered @ 2012-11-28 15:02:14, last login @ 2012-11-28 15:02:14
  16. 0linda23iris registered @ 2012-11-28 15:02:25, last login @ 2012-11-28 15:02:25
  17. 0beech1polo registered @ 2012-11-28 15:02:27, last login @ 2012-11-28 15:02:27
  18. 0parade6love registered @ 2012-11-28 15:02:38, last login @ 2012-11-28 15:02:38
  19. 0Shrishify registered @ 2012-11-28 15:03:43, last login @ 2012-11-28 15:03:43
  20. 0stool78mark registered @ 2012-11-28 15:04:45, last login @ 2012-11-28 15:04:45
  21. 0duckwar9 registered @ 2012-11-28 15:04:51, last login @ 2012-11-28 15:34:40
  22. 0polish5mom registered @ 2012-11-28 15:04:58, last login @ 2012-11-28 15:04:58
  23. 0cougar38drum registered @ 2012-11-28 15:05:23, last login @ 2012-11-28 15:05:23
  24. 0blue8expert registered @ 2012-11-28 15:05:29, last login @ 2012-11-28 15:05:29
  25. 0lunch9coast registered @ 2012-11-28 15:08:14, last login @ 2012-11-28 15:08:14
  26. 0paincopper54 registered @ 2012-11-28 15:08:20, last login @ 2012-11-28 15:08:20
  27. 0david91system registered @ 2012-11-28 15:09:01, last login @ 2012-11-28 15:52:18
  28. 0jacket6feet registered @ 2012-11-28 15:09:55, last login @ 2012-11-28 15:41:32
  29. 0head3cat registered @ 2012-11-28 15:11:14, last login @ 2012-11-28 15:11:14
  30. 0pantryticket38 registered @ 2012-11-28 15:11:27, last login @ 2012-11-28 15:11:27
  31. 0zebra9bangle registered @ 2012-11-28 15:11:42, last login @ 2012-11-28 15:11:42
  32. 0coffee11bell registered @ 2012-11-28 15:11:47, last login @ 2012-11-28 15:11:47
  33. 0dill6iran registered @ 2012-11-28 15:12:36, last login @ 2012-11-28 15:12:36
  34. 0marblecoast4 registered @ 2012-11-28 15:13:48, last login @ 2012-11-28 15:13:48
  35. 0poet5piano registered @ 2012-11-28 15:13:56, last login @ 2012-11-28 15:13:56
  36. 0quince87bean registered @ 2012-11-28 15:13:59, last login @ 2012-11-28 15:13:59
  37. 0berserk_x720 registered @ 2012-11-28 15:13:59, last login @ 2012-11-28 15:13:59
  38. 0domainslime5 registered @ 2012-11-28 15:14:18, last login @ 2012-11-28 15:14:18
  39. 0fallbacon6 registered @ 2012-11-28 15:14:38, last login @ 2012-11-28 15:36:50
  40. 0dangertail34 registered @ 2012-11-28 15:14:41, last login @ 2012-11-28 15:14:41
  41. 0clickshame0 registered @ 2012-11-28 15:17:11, last login @ 2012-11-28 15:17:11
  42. 0plain04tile registered @ 2012-11-28 15:17:21, last login @ 2012-11-28 15:17:21
  43. 0bedend86 registered @ 2012-11-28 15:17:58, last login @ 2012-11-28 15:17:58
  44. 0cod48raft registered @ 2012-11-28 15:18:22, last login @ 2012-11-28 15:18:22
  45. 0rod5plain registered @ 2012-11-28 15:20:16, last login @ 2012-11-28 15:20:16
  46. 0branch22bead registered @ 2012-11-28 15:20:35, last login @ 2012-11-28 15:20:35
  47. 0jail19helmet registered @ 2012-11-28 15:20:37, last login @ 2012-11-28 15:32:55
  48. 0donnalentil6 registered @ 2012-11-28 15:20:37, last login @ 2012-11-28 15:20:37
  49. 0traytile7 registered @ 2012-11-28 15:21:01, last login @ 2012-11-28 15:59:07
  50. 0stovewheel95 registered @ 2012-11-28 15:21:59, last login @ 2012-11-28 15:21:59
  51. 0sweetsshadow8 registered @ 2012-11-28 15:22:38, last login @ 2012-11-28 15:22:38
  52. 0flood6state registered @ 2012-11-28 15:23:24, last login @ 2012-11-28 15:23:24
  53. 0lotionchive5 registered @ 2012-11-28 15:24:16, last login @ 2012-11-28 15:24:16
  54. 0tile35carrot registered @ 2012-11-28 15:26:48, last login @ 2012-11-28 15:26:48
  55. 0frame87cup registered @ 2012-11-28 15:27:25, last login @ 2012-11-28 15:27:25
  56. 0stop32poison registered @ 2012-11-28 15:27:31, last login @ 2012-11-28 15:27:31
  57. 0rockopera8 registered @ 2012-11-28 15:27:38, last login @ 2012-11-28 15:57:38
  58. 0cddahlia49 registered @ 2012-11-28 15:28:06, last login @ 2012-11-28 15:28:06
  59. 0swisscd14 registered @ 2012-11-28 15:28:34, last login @ 2012-11-28 15:28:34
  60. 0pullshorts9 registered @ 2012-11-28 15:29:49, last login @ 2012-11-28 15:29:49
  61. 0book666 registered @ 2012-11-28 15:30:00, last login @ 2012-11-28 15:30:00
  62. 0girl1cord registered @ 2012-11-28 15:30:25, last login @ 2012-11-28 15:30:25
  63. 0dew39jaguar registered @ 2012-11-28 15:30:59, last login @ 2012-11-28 15:30:59
  64. 0enemy0food registered @ 2012-11-28 15:31:32, last login @ 2012-11-28 15:31:32
  65. 0pintfact44 registered @ 2012-11-28 15:32:05, last login @ 2012-11-28 15:32:05
  66. 0linda8work registered @ 2012-11-28 15:32:44, last login @ 2012-11-28 15:32:44
  67. 0templebull27 registered @ 2012-11-28 15:33:26, last login @ 2012-11-28 15:33:26
  68. 0slice75john registered @ 2012-11-28 15:34:25, last login @ 2012-11-28 15:34:25
  69. 0galley8egypt registered @ 2012-11-28 15:34:38, last login @ 2012-11-28 15:34:38
  70. 0sleep92coat registered @ 2012-11-28 15:34:50, last login @ 2012-11-28 15:34:50
  71. 0campant5 registered @ 2012-11-28 15:35:15, last login @ 2012-11-28 15:35:15
  72. 0molejar42 registered @ 2012-11-28 15:36:24, last login @ 2012-11-28 15:36:24
  73. 0vacuum37quill registered @ 2012-11-28 15:38:05, last login @ 2012-11-28 15:38:05
  74. 0mask07dragon registered @ 2012-11-28 15:41:54, last login @ 2012-11-28 15:41:54
  75. 0adult71wren registered @ 2012-11-28 15:42:55, last login @ 2012-11-28 15:42:55
  76. 0haider11 registered @ 2012-11-28 15:43:03, last login @ 2012-11-28 15:43:03
  77. 0namefine7 registered @ 2012-11-28 15:43:13, last login @ 2012-11-28 15:43:13
  78. 0knee9girdle registered @ 2012-11-28 15:43:33, last login @ 2012-11-28 15:43:33
  79. 0soccersauce7 registered @ 2012-11-28 15:44:40, last login @ 2012-11-28 15:44:40
  80. 0radiobed62 registered @ 2012-11-28 15:44:56, last login @ 2012-11-28 15:44:56
  81. 0peonyminute0 registered @ 2012-11-28 15:45:20, last login @ 2012-11-28 15:45:20
  82. 0paperalloy3 registered @ 2012-11-28 15:46:11, last login @ 2012-11-28 15:46:11
  83. 0suckmydonkey registered @ 2012-11-28 15:47:06, last login @ 2012-11-28 15:51:14
  84. 0girlwound9 registered @ 2012-11-28 15:48:20, last login @ 2012-11-28 15:48:20
  85. 0selectwhorl71 registered @ 2012-11-28 15:49:02, last login @ 2012-11-28 15:49:02
  86. 0manxclutch1 registered @ 2012-11-28 15:50:30, last login @ 2012-11-28 15:50:30
  87. 0botanyregret32 registered @ 2012-11-28 15:50:36, last login @ 2012-11-28 15:50:36
  88. 0wolfcoke1 registered @ 2012-11-28 15:51:21, last login @ 2012-11-28 15:51:21
  89. 0linewood89 registered @ 2012-11-28 15:51:30, last login @ 2012-11-28 15:51:30
  90. 0market7worm registered @ 2012-11-28 15:51:53, last login @ 2012-11-28 15:51:53
  91. 0malecrib5 registered @ 2012-11-28 15:53:21, last login @ 2012-11-28 15:53:21
  92. 0stitch28bell registered @ 2012-11-28 15:53:59, last login @ 2012-11-28 15:53:59
  93. 0canvelvet13 registered @ 2012-11-28 15:55:00, last login @ 2012-11-28 15:55:00
  94. 0stonespring3 registered @ 2012-11-28 15:55:24, last login @ 2012-11-28 15:55:24
  95. 0burst7farmer registered @ 2012-11-28 15:56:00, last login @ 2012-11-28 15:56:00
  96. 0edge7frown registered @ 2012-11-28 15:56:26, last login @ 2012-11-28 15:56:26
  97. 0fruit79link registered @ 2012-11-28 15:59:53, last login @ 2012-11-28 15:59:53
  98. 0mimosa5harbor registered @ 2012-11-28 16:00:15, last login @ 2012-11-28 16:00:15
  99. 0jaguarcost48 registered @ 2012-11-28 16:01:11, last login @ 2012-11-28 16:01:11
  100. 0noodle3pen registered @ 2012-11-28 16:01:14, last login @ 2012-11-28 16:01:14
  101. 0nest61israel registered @ 2012-11-28 16:01:29, last login @ 2012-11-28 16:01:29

More...

[4669] [4668] [4667] [4666] [4665] [4664] [4663] [4662] [4661] [4660] [4659] [4658] [4657] [4656] [4655] [4654] [4653] [4652] [4651] [4650] ...[1]
Back to Top